sensor_id;sensor_type;location;lat;lon;timestamp;pressure;altitude;pressure_sealevel;temperature;humidity
692;BME280;70475;50.084;8.576;2024-02-28T00:00:05;100854.28;;;5.23;100.00
692;BME280;70475;50.084;8.576;2024-02-28T00:02:34;100848.72;;;5.16;100.00
692;BME280;70475;50.084;8.576;2024-02-28T00:05:01;100855.00;;;5.15;100.00
692;BME280;70475;50.084;8.576;2024-02-28T00:07:29;100855.63;;;5.00;100.00
692;BME280;70475;50.084;8.576;2024-02-28T00:09:58;100851.19;;;4.91;100.00
692;BME280;70475;50.084;8.576;2024-02-28T00:12:26;100848.28;;;4.94;100.00
692;BME280;70475;50.084;8.576;2024-02-28T00:14:54;100861.31;;;4.86;100.00
692;BME280;70475;50.084;8.576;2024-02-28T00:17:22;100856.19;;;4.84;100.00
692;BME280;70475;50.084;8.576;2024-02-28T00:19:49;100865.22;;;4.82;100.00
692;BME280;70475;50.084;8.576;2024-02-28T00:22:17;100871.06;;;4.76;100.00
692;BME280;70475;50.084;8.576;2024-02-28T00:24:44;100868.72;;;4.73;100.00
692;BME280;70475;50.084;8.576;2024-02-28T00:27:12;100873.03;;;4.64;100.00
692;BME280;70475;50.084;8.576;2024-02-28T00:29:41;100877.59;;;4.62;100.00
692;BME280;70475;50.084;8.576;2024-02-28T00:32:09;100873.03;;;4.55;100.00
692;BME280;70475;50.084;8.576;2024-02-28T00:34:36;100879.28;;;4.44;100.00
692;BME280;70475;50.084;8.576;2024-02-28T00:37:04;100879.97;;;4.46;100.00
692;BME280;70475;50.084;8.576;2024-02-28T00:39:31;100881.38;;;4.41;100.00
692;BME280;70475;50.084;8.576;2024-02-28T00:41:59;100879.41;;;4.43;100.00
692;BME280;70475;50.084;8.576;2024-02-28T00:44:27;100882.03;;;4.43;100.00
692;BME280;70475;50.084;8.576;2024-02-28T00:46:56;100882.03;;;4.43;100.00
692;BME280;70475;50.084;8.576;2024-02-28T00:49:23;100881.38;;;4.41;100.00
692;BME280;70475;50.084;8.576;2024-02-28T00:51:51;100898.56;;;4.25;100.00
692;BME280;70475;50.084;8.576;2024-02-28T00:54:19;100884.66;;;4.04;100.00
692;BME280;70475;50.084;8.576;2024-02-28T00:56:48;100894.56;;;3.72;100.00
692;BME280;70475;50.084;8.576;2024-02-28T00:59:15;100899.72;;;3.44;100.00
692;BME280;70475;50.084;8.576;2024-02-28T01:01:43;100900.00;;;3.20;100.00
692;BME280;70475;50.084;8.576;2024-02-28T01:04:12;100902.16;;;3.06;100.00
692;BME280;70475;50.084;8.576;2024-02-28T01:06:39;100911.41;;;3.00;100.00
692;BME280;70475;50.084;8.576;2024-02-28T01:09:07;100905.00;;;2.93;100.00
692;BME280;70475;50.084;8.576;2024-02-28T01:11:34;100911.78;;;3.16;100.00
692;BME280;70475;50.084;8.576;2024-02-28T01:14:02;100914.16;;;3.49;100.00
692;BME280;70475;50.084;8.576;2024-02-28T01:16:29;100922.56;;;3.73;100.00
692;BME280;70475;50.084;8.576;2024-02-28T01:18:57;100916.75;;;3.79;100.00
692;BME280;70475;50.084;8.576;2024-02-28T01:21:26;100919.25;;;3.71;100.00
692;BME280;70475;50.084;8.576;2024-02-28T01:23:53;100921.69;;;3.63;100.00
692;BME280;70475;50.084;8.576;2024-02-28T01:26:21;100924.91;;;3.67;100.00
692;BME280;70475;50.084;8.576;2024-02-28T01:28:49;100922.19;;;3.48;100.00
692;BME280;70475;50.084;8.576;2024-02-28T01:31:17;100920.13;;;3.51;100.00
692;BME280;70475;50.084;8.576;2024-02-28T01:33:44;100923.53;;;3.42;100.00
692;BME280;70475;50.084;8.576;2024-02-28T01:36:12;100925.66;;;3.18;100.00
692;BME280;70475;50.084;8.576;2024-02-28T01:38:41;100918.72;;;2.97;100.00
692;BME280;70475;50.084;8.576;2024-02-28T01:41:08;100918.72;;;2.76;100.00
692;BME280;70475;50.084;8.576;2024-02-28T01:43:36;100928.81;;;2.60;100.00
692;BME280;70475;50.084;8.576;2024-02-28T01:46:17;100929.75;;;2.39;100.00
692;BME280;70475;50.084;8.576;2024-02-28T01:48:47;100931.13;;;2.22;100.00
692;BME280;70475;50.084;8.576;2024-02-28T01:51:15;100928.97;;;2.16;100.00
692;BME280;70475;50.084;8.576;2024-02-28T01:53:46;100930.31;;;2.10;100.00
692;BME280;70475;50.084;8.576;2024-02-28T01:56:14;100928.38;;;2.12;100.00
692;BME280;70475;50.084;8.576;2024-02-28T01:58:45;100926.03;;;1.98;100.00
692;BME280;70475;50.084;8.576;2024-02-28T02:01:14;100925.00;;;1.90;100.00
692;BME280;70475;50.084;8.576;2024-02-28T02:03:42;100924.41;;;1.75;100.00
692;BME280;70475;50.084;8.576;2024-02-28T02:06:10;100928.94;;;1.73;100.00
692;BME280;70475;50.084;8.576;2024-02-28T02:08:39;100928.81;;;1.75;100.00
692;BME280;70475;50.084;8.576;2024-02-28T02:11:08;100925.94;;;1.67;100.00
692;BME280;70475;50.084;8.576;2024-02-28T02:13:36;100924.41;;;1.64;100.00
692;BME280;70475;50.084;8.576;2024-02-28T02:16:14;100927.06;;;1.53;100.00
692;BME280;70475;50.084;8.576;2024-02-28T02:18:41;100932.31;;;1.53;100.00
692;BME280;70475;50.084;8.576;2024-02-28T02:21:11;100934.56;;;1.47;100.00
692;BME280;70475;50.084;8.576;2024-02-28T02:23:41;100943.97;;;1.49;100.00
692;BME280;70475;50.084;8.576;2024-02-28T02:26:08;100943.16;;;1.49;100.00
692;BME280;70475;50.084;8.576;2024-02-28T02:28:36;100949.91;;;1.40;100.00
692;BME280;70475;50.084;8.576;2024-02-28T02:31:04;100942.28;;;1.37;100.00
692;BME280;70475;50.084;8.576;2024-02-28T02:33:31;100940.75;;;1.35;100.00
692;BME280;70475;50.084;8.576;2024-02-28T02:35:59;100937.50;;;1.31;100.00
692;BME280;70475;50.084;8.576;2024-02-28T02:38:26;100937.78;;;1.28;100.00
692;BME280;70475;50.084;8.576;2024-02-28T02:40:55;100935.16;;;1.28;100.00
692;BME280;70475;50.084;8.576;2024-02-28T02:43:23;100952.78;;;1.26;100.00
692;BME280;70475;50.084;8.576;2024-02-28T02:45:51;100944.28;;;1.23;100.00
692;BME280;70475;50.084;8.576;2024-02-28T02:48:18;100949.31;;;1.15;100.00
692;BME280;70475;50.084;8.576;2024-02-28T02:50:46;100950.47;;;1.11;100.00
692;BME280;70475;50.084;8.576;2024-02-28T02:53:14;100956.22;;;1.16;100.00
692;BME280;70475;50.084;8.576;2024-02-28T02:55:41;100953.47;;;1.17;100.00
692;BME280;70475;50.084;8.576;2024-02-28T02:58:10;100952.97;;;1.12;100.00
692;BME280;70475;50.084;8.576;2024-02-28T03:00:38;100950.97;;;1.16;100.00
692;BME280;70475;50.084;8.576;2024-02-28T03:03:05;100947.03;;;1.10;100.00
692;BME280;70475;50.084;8.576;2024-02-28T03:05:33;100957.13;;;0.93;100.00
692;BME280;70475;50.084;8.576;2024-02-28T03:08:00;100961.28;;;0.95;100.00
692;BME280;70475;50.084;8.576;2024-02-28T03:10:28;100963.53;;;0.89;100.00
692;BME280;70475;50.084;8.576;2024-02-28T03:12:56;100959.97;;;0.90;100.00
692;BME280;70475;50.084;8.576;2024-02-28T03:15:25;100958.50;;;0.86;100.00
692;BME280;70475;50.084;8.576;2024-02-28T03:17:52;100956.34;;;0.80;100.00
692;BME280;70475;50.084;8.576;2024-02-28T03:20:20;100961.69;;;0.78;100.00
692;BME280;70475;50.084;8.576;2024-02-28T03:22:48;100963.22;;;0.70;100.00
692;BME280;70475;50.084;8.576;2024-02-28T03:25:15;100969.41;;;0.69;100.00
692;BME280;70475;50.084;8.576;2024-02-28T03:27:43;100977.41;;;0.67;100.00
692;BME280;70475;50.084;8.576;2024-02-28T03:30:11;100978.84;;;0.71;100.00
692;BME280;70475;50.084;8.576;2024-02-28T03:32:40;100984.19;;;0.70;100.00
692;BME280;70475;50.084;8.576;2024-02-28T03:35:07;100986.78;;;0.59;100.00
692;BME280;70475;50.084;8.576;2024-02-28T03:37:36;100995.13;;;0.64;100.00
692;BME280;70475;50.084;8.576;2024-02-28T03:40:04;100993.69;;;0.60;100.00
692;BME280;70475;50.084;8.576;2024-02-28T03:42:31;101008.88;;;0.55;100.00
692;BME280;70475;50.084;8.576;2024-02-28T03:44:59;101001.72;;;0.46;100.00
692;BME280;70475;50.084;8.576;2024-02-28T03:47:27;101006.09;;;0.45;100.00
692;BME280;70475;50.084;8.576;2024-02-28T03:49:56;100997.50;;;0.43;100.00
692;BME280;70475;50.084;8.576;2024-02-28T03:52:25;101002.59;;;0.34;100.00
692;BME280;70475;50.084;8.576;2024-02-28T03:54:53;101000.56;;;0.37;100.00
692;BME280;70475;50.084;8.576;2024-02-28T03:57:20;101004.91;;;0.26;100.00
692;BME280;70475;50.084;8.576;2024-02-28T03:59:48;101003.78;;;0.17;100.00
692;BME280;70475;50.084;8.576;2024-02-28T04:02:16;101017.06;;;0.27;100.00
692;BME280;70475;50.084;8.576;2024-02-28T04:04:43;101023.47;;;0.23;100.00
692;BME280;70475;50.084;8.576;2024-02-28T04:07:12;101031.44;;;0.21;100.00
692;BME280;70475;50.084;8.576;2024-02-28T04:09:40;101027.78;;;0.24;100.00
692;BME280;70475;50.084;8.576;2024-02-28T04:12:07;101034.69;;;0.25;100.00
692;BME280;70475;50.084;8.576;2024-02-28T04:14:37;101036.78;;;0.20;100.00
692;BME280;70475;50.084;8.576;2024-02-28T04:17:05;101038.16;;;0.13;100.00
692;BME280;70475;50.084;8.576;2024-02-28T04:19:33;101041.63;;;0.13;100.00
692;BME280;70475;50.084;8.576;2024-02-28T04:22:03;101035.00;;;0.20;100.00
692;BME280;70475;50.084;8.576;2024-02-28T04:24:32;101034.88;;;0.22;100.00
692;BME280;70475;50.084;8.576;2024-02-28T04:27:02;101046.44;;;0.19;100.00
692;BME280;70475;50.084;8.576;2024-02-28T04:29:31;101042.22;;;0.17;100.00
692;BME280;70475;50.084;8.576;2024-02-28T04:31:59;101047.03;;;0.23;100.00
692;BME280;70475;50.084;8.576;2024-02-28T04:34:26;101061.06;;;0.22;100.00
692;BME280;70475;50.084;8.576;2024-02-28T04:36:56;101048.31;;;0.17;100.00
692;BME280;70475;50.084;8.576;2024-02-28T04:39:24;101058.56;;;0.08;100.00
692;BME280;70475;50.084;8.576;2024-02-28T04:41:53;101058.59;;;-0.05;100.00
692;BME280;70475;50.084;8.576;2024-02-28T04:44:20;101062.50;;;-0.11;100.00
692;BME280;70475;50.084;8.576;2024-02-28T04:46:48;101064.91;;;-0.08;100.00
692;BME280;70475;50.084;8.576;2024-02-28T04:49:15;101073.03;;;0.00;100.00
692;BME280;70475;50.084;8.576;2024-02-28T04:51:43;101077.78;;;-0.05;100.00
692;BME280;70475;50.084;8.576;2024-02-28T04:54:11;101079.22;;;-0.13;100.00
692;BME280;70475;50.084;8.576;2024-02-28T04:56:39;101086.47;;;-0.17;100.00
692;BME280;70475;50.084;8.576;2024-02-28T04:59:08;101088.78;;;-0.12;100.00
692;BME280;70475;50.084;8.576;2024-02-28T05:01:36;101097.75;;;-0.04;100.00
692;BME280;70475;50.084;8.576;2024-02-28T05:04:06;101101.63;;;0.03;100.00
692;BME280;70475;50.084;8.576;2024-02-28T05:06:34;101099.22;;;0.00;100.00
692;BME280;70475;50.084;8.576;2024-02-28T05:09:05;101105.41;;;-0.01;100.00
692;BME280;70475;50.084;8.576;2024-02-28T05:11:33;101101.13;;;-0.02;100.00
692;BME280;70475;50.084;8.576;2024-02-28T05:14:01;101090.84;;;-0.05;100.00
692;BME280;70475;50.084;8.576;2024-02-28T05:16:30;101094.50;;;-0.07;100.00
692;BME280;70475;50.084;8.576;2024-02-28T05:18:58;101100.78;;;-0.10;100.00
692;BME280;70475;50.084;8.576;2024-02-28T05:21:26;101100.25;;;-0.15;100.00
692;BME280;70475;50.084;8.576;2024-02-28T05:23:54;101106.88;;;-0.22;100.00
692;BME280;70475;50.084;8.576;2024-02-28T05:26:22;101108.09;;;-0.15;100.00
692;BME280;70475;50.084;8.576;2024-02-28T05:28:49;101113.25;;;-0.26;100.00
692;BME280;70475;50.084;8.576;2024-02-28T05:31:21;101114.06;;;-0.38;100.00
692;BME280;70475;50.084;8.576;2024-02-28T05:33:51;101116.59;;;-0.36;100.00
692;BME280;70475;50.084;8.576;2024-02-28T05:36:21;101115.63;;;-0.35;100.00
692;BME280;70475;50.084;8.576;2024-02-28T05:38:49;101120.88;;;-0.35;100.00
692;BME280;70475;50.084;8.576;2024-02-28T05:41:17;101128.91;;;-0.38;100.00
692;BME280;70475;50.084;8.576;2024-02-28T05:43:45;101126.31;;;-0.38;100.00
692;BME280;70475;50.084;8.576;2024-02-28T05:46:13;101134.78;;;-0.35;100.00
692;BME280;70475;50.084;8.576;2024-02-28T05:48:41;101133.84;;;-0.34;100.00
692;BME280;70475;50.084;8.576;2024-02-28T05:51:10;101130.81;;;-0.40;100.00
692;BME280;70475;50.084;8.576;2024-02-28T05:53:38;101132.72;;;-0.30;100.00
692;BME280;70475;50.084;8.576;2024-02-28T05:56:07;101133.53;;;-0.29;100.00
692;BME280;70475;50.084;8.576;2024-02-28T05:58:40;101137.81;;;-0.41;100.00
692;BME280;70475;50.084;8.576;2024-02-28T06:01:08;101136.47;;;-0.34;100.00
692;BME280;70475;50.084;8.576;2024-02-28T06:03:36;101134.59;;;-0.32;100.00
692;BME280;70475;50.084;8.576;2024-02-28T06:06:04;101146.94;;;-0.34;100.00
692;BME280;70475;50.084;8.576;2024-02-28T06:08:34;101143.19;;;-0.30;100.00
692;BME280;70475;50.084;8.576;2024-02-28T06:11:01;101155.13;;;-0.26;100.00
692;BME280;70475;50.084;8.576;2024-02-28T06:13:29;101166.84;;;-0.19;100.00
692;BME280;70475;50.084;8.576;2024-02-28T06:15:57;101157.63;;;-0.12;100.00
692;BME280;70475;50.084;8.576;2024-02-28T06:18:26;101162.66;;;-0.09;100.00
692;BME280;70475;50.084;8.576;2024-02-28T06:20:54;101169.50;;;-0.06;100.00
692;BME280;70475;50.084;8.576;2024-02-28T06:23:22;101159.53;;;-0.14;100.00
692;BME280;70475;50.084;8.576;2024-02-28T06:25:56;101164.75;;;-0.14;100.00
692;BME280;70475;50.084;8.576;2024-02-28T06:28:24;101168.09;;;-0.12;100.00
692;BME280;70475;50.084;8.576;2024-02-28T06:30:52;101182.25;;;-0.02;100.00
692;BME280;70475;50.084;8.576;2024-02-28T06:33:19;101177.31;;;0.07;100.00
692;BME280;70475;50.084;8.576;2024-02-28T06:35:47;101185.50;;;0.15;100.00
692;BME280;70475;50.084;8.576;2024-02-28T06:38:14;101190.75;;;0.27;100.00
692;BME280;70475;50.084;8.576;2024-02-28T06:40:42;101185.94;;;0.34;100.00
692;BME280;70475;50.084;8.576;2024-02-28T06:43:11;101190.75;;;0.40;100.00
692;BME280;70475;50.084;8.576;2024-02-28T06:45:38;101193.75;;;0.46;100.00
692;BME280;70475;50.084;8.576;2024-02-28T06:48:07;101197.97;;;0.49;100.00
692;BME280;70475;50.084;8.576;2024-02-28T06:50:34;101192.69;;;0.61;100.00
692;BME280;70475;50.084;8.576;2024-02-28T06:53:02;101192.16;;;0.69;100.00
692;BME280;70475;50.084;8.576;2024-02-28T06:55:30;101203.47;;;0.82;100.00
692;BME280;70475;50.084;8.576;2024-02-28T06:57:58;101206.59;;;0.87;100.00
692;BME280;70475;50.084;8.576;2024-02-28T07:00:27;101207.63;;;0.84;100.00
692;BME280;70475;50.084;8.576;2024-02-28T07:02:54;101220.63;;;0.86;100.00
692;BME280;70475;50.084;8.576;2024-02-28T07:05:22;101221.56;;;0.97;100.00
692;BME280;70475;50.084;8.576;2024-02-28T07:08:04;101225.91;;;1.45;100.00
692;BME280;70475;50.084;8.576;2024-02-28T07:11:04;101226.75;;;1.46;100.00
692;BME280;70475;50.084;8.576;2024-02-28T07:13:32;101239.44;;;1.75;100.00
692;BME280;70475;50.084;8.576;2024-02-28T07:16:01;101239.72;;;1.94;100.00
692;BME280;70475;50.084;8.576;2024-02-28T07:18:28;101237.75;;;2.09;100.00
692;BME280;70475;50.084;8.576;2024-02-28T07:20:56;101245.06;;;2.17;100.00
692;BME280;70475;50.084;8.576;2024-02-28T07:23:24;101245.63;;;2.20;100.00
692;BME280;70475;50.084;8.576;2024-02-28T07:25:51;101248.88;;;2.24;100.00
692;BME280;70475;50.084;8.576;2024-02-28T07:28:19;101246.88;;;2.27;100.00
692;BME280;70475;50.084;8.576;2024-02-28T07:30:46;101239.69;;;2.29;100.00
692;BME280;70475;50.084;8.576;2024-02-28T07:33:16;101240.41;;;2.31;100.00
692;BME280;70475;50.084;8.576;2024-02-28T07:35:44;101246.88;;;2.27;100.00
692;BME280;70475;50.084;8.576;2024-02-28T07:38:12;101238.59;;;2.32;100.00
692;BME280;70475;50.084;8.576;2024-02-28T07:40:39;101249.00;;;2.33;100.00
692;BME280;70475;50.084;8.576;2024-02-28T07:43:07;101247.00;;;2.37;100.00
692;BME280;70475;50.084;8.576;2024-02-28T07:45:34;101244.25;;;2.38;100.00
692;BME280;70475;50.084;8.576;2024-02-28T07:48:02;101243.53;;;2.36;100.00
692;BME280;70475;50.084;8.576;2024-02-28T07:50:31;101243.63;;;2.35;100.00
692;BME280;70475;50.084;8.576;2024-02-28T07:52:59;101249.00;;;2.33;100.00
692;BME280;70475;50.084;8.576;2024-02-28T07:55:26;101245.56;;;2.33;100.00
692;BME280;70475;50.084;8.576;2024-02-28T07:57:54;101246.50;;;2.32;100.00
692;BME280;70475;50.084;8.576;2024-02-28T08:00:22;101247.34;;;2.32;100.00
692;BME280;70475;50.084;8.576;2024-02-28T08:02:51;101249.75;;;2.35;100.00
692;BME280;70475;50.084;8.576;2024-02-28T08:05:19;101245.91;;;2.39;100.00
692;BME280;70475;50.084;8.576;2024-02-28T08:07:48;101250.94;;;2.42;100.00
692;BME280;70475;50.084;8.576;2024-02-28T08:10:15;101252.16;;;2.49;100.00
692;BME280;70475;50.084;8.576;2024-02-28T08:12:43;101255.03;;;2.57;100.00
692;BME280;70475;50.084;8.576;2024-02-28T08:15:11;101250.63;;;2.58;100.00
692;BME280;70475;50.084;8.576;2024-02-28T08:17:38;101247.38;;;2.54;100.00
692;BME280;70475;50.084;8.576;2024-02-28T08:20:07;101252.03;;;2.62;100.00
692;BME280;70475;50.084;8.576;2024-02-28T08:22:35;101246.69;;;2.74;100.00
692;BME280;70475;50.084;8.576;2024-02-28T08:25:05;101242.63;;;2.81;100.00
692;BME280;70475;50.084;8.576;2024-02-28T08:27:32;101258.28;;;2.83;100.00
692;BME280;70475;50.084;8.576;2024-02-28T08:30:02;101250.97;;;2.86;100.00
692;BME280;70475;50.084;8.576;2024-02-28T08:32:30;101262.34;;;2.87;100.00
692;BME280;70475;50.084;8.576;2024-02-28T08:34:58;101259.09;;;2.94;100.00
692;BME280;70475;50.084;8.576;2024-02-28T08:37:26;101255.63;;;2.94;100.00
692;BME280;70475;50.084;8.576;2024-02-28T08:39:55;101259.09;;;2.94;100.00
692;BME280;70475;50.084;8.576;2024-02-28T08:42:25;101250.00;;;2.98;100.00
692;BME280;70475;50.084;8.576;2024-02-28T08:44:53;101249.78;;;3.01;100.00
692;BME280;70475;50.084;8.576;2024-02-28T08:47:22;101255.16;;;3.11;100.00
692;BME280;70475;50.084;8.576;2024-02-28T08:49:50;101259.31;;;3.13;100.00
692;BME280;70475;50.084;8.576;2024-02-28T08:52:18;101266.97;;;3.27;100.00
692;BME280;70475;50.084;8.576;2024-02-28T08:54:46;101260.50;;;3.20;100.00
692;BME280;70475;50.084;8.576;2024-02-28T08:57:14;101258.59;;;3.22;100.00
692;BME280;70475;50.084;8.576;2024-02-28T08:59:43;101271.16;;;3.19;100.00
692;BME280;70475;50.084;8.576;2024-02-28T09:02:10;101273.19;;;3.26;100.00
692;BME280;70475;50.084;8.576;2024-02-28T09:04:38;101276.78;;;3.14;100.00
692;BME280;70475;50.084;8.576;2024-02-28T09:07:06;101282.41;;;3.21;100.00
692;BME280;70475;50.084;8.576;2024-02-28T09:09:33;101286.34;;;3.26;100.00
692;BME280;70475;50.084;8.576;2024-02-28T09:12:05;101293.31;;;3.05;100.00
692;BME280;70475;50.084;8.576;2024-02-28T09:14:32;101293.41;;;3.15;100.00
692;BME280;70475;50.084;8.576;2024-02-28T09:17:01;101297.13;;;3.12;100.00
692;BME280;70475;50.084;8.576;2024-02-28T09:19:30;101293.06;;;3.30;100.00
692;BME280;70475;50.084;8.576;2024-02-28T09:21:58;101292.69;;;3.24;100.00
692;BME280;70475;50.084;8.576;2024-02-28T09:24:26;101298.78;;;3.35;100.00
692;BME280;70475;50.084;8.576;2024-02-28T09:26:54;101290.88;;;3.35;100.00
692;BME280;70475;50.084;8.576;2024-02-28T09:29:21;101294.34;;;3.25;100.00
692;BME280;70475;50.084;8.576;2024-02-28T09:31:49;101286.09;;;3.29;100.00
692;BME280;70475;50.084;8.576;2024-02-28T09:34:17;101306.56;;;3.37;100.00
692;BME280;70475;50.084;8.576;2024-02-28T09:36:45;101305.69;;;3.36;100.00
692;BME280;70475;50.084;8.576;2024-02-28T09:39:16;101302.13;;;3.26;100.00
692;BME280;70475;50.084;8.576;2024-02-28T09:41:47;101306.34;;;3.29;100.00
692;BME280;70475;50.084;8.576;2024-02-28T09:44:16;101297.31;;;3.42;100.00
692;BME280;70475;50.084;8.576;2024-02-28T09:46:44;101303.06;;;3.47;100.00
692;BME280;70475;50.084;8.576;2024-02-28T09:49:13;101303.91;;;3.37;100.00
692;BME280;70475;50.084;8.576;2024-02-28T09:51:43;101298.84;;;3.56;100.00
692;BME280;70475;50.084;8.576;2024-02-28T09:54:11;101305.22;;;3.53;100.00
692;BME280;70475;50.084;8.576;2024-02-28T09:56:40;101295.16;;;3.47;100.00
692;BME280;70475;50.084;8.576;2024-02-28T09:59:08;101308.34;;;3.58;100.00
692;BME280;70475;50.084;8.576;2024-02-28T10:01:42;101310.47;;;3.53;100.00
692;BME280;70475;50.084;8.576;2024-02-28T10:04:12;101309.75;;;3.51;100.00
692;BME280;70475;50.084;8.576;2024-02-28T10:06:42;101302.94;;;3.38;100.00
692;BME280;70475;50.084;8.576;2024-02-28T10:09:09;101296.72;;;3.61;100.00
692;BME280;70475;50.084;8.576;2024-02-28T10:11:37;101307.06;;;3.84;100.00
692;BME280;70475;50.084;8.576;2024-02-28T10:14:08;101306.56;;;3.79;100.00
692;BME280;70475;50.084;8.576;2024-02-28T10:16:36;101316.38;;;3.88;100.00
692;BME280;70475;50.084;8.576;2024-02-28T10:19:05;101316.72;;;3.95;100.00
692;BME280;70475;50.084;8.576;2024-02-28T10:21:33;101325.16;;;4.09;100.00
692;BME280;70475;50.084;8.576;2024-02-28T10:24:02;101325.81;;;4.22;100.00
692;BME280;70475;50.084;8.576;2024-02-28T10:26:31;101325.09;;;4.20;100.00
692;BME280;70475;50.084;8.576;2024-02-28T10:29:04;101329.63;;;4.50;100.00
692;BME280;70475;50.084;8.576;2024-02-28T10:31:35;101329.06;;;4.67;100.00
692;BME280;70475;50.084;8.576;2024-02-28T10:34:03;101322.91;;;4.78;100.00
692;BME280;70475;50.084;8.576;2024-02-28T10:36:32;101322.94;;;4.87;100.00
692;BME280;70475;50.084;8.576;2024-02-28T10:39:00;101323.72;;;4.78;100.00
692;BME280;70475;50.084;8.576;2024-02-28T10:41:29;101325.78;;;4.75;100.00
692;BME280;70475;50.084;8.576;2024-02-28T10:43:59;101330.81;;;5.08;100.00
692;BME280;70475;50.084;8.576;2024-02-28T10:46:27;101327.84;;;5.31;100.00
692;BME280;70475;50.084;8.576;2024-02-28T10:49:02;101324.13;;;5.34;100.00
692;BME280;70475;50.084;8.576;2024-02-28T10:51:34;101323.78;;;5.57;100.00
692;BME280;70475;50.084;8.576;2024-02-28T10:54:07;101323.38;;;5.62;100.00
692;BME280;70475;50.084;8.576;2024-02-28T10:56:37;101322.97;;;5.76;100.00
692;BME280;70475;50.084;8.576;2024-02-28T10:59:06;101317.19;;;5.82;100.00
692;BME280;70475;50.084;8.576;2024-02-28T11:01:38;101315.81;;;5.97;100.00
692;BME280;70475;50.084;8.576;2024-02-28T11:04:08;101315.81;;;5.97;100.00
692;BME280;70475;50.084;8.576;2024-02-28T11:06:48;101321.25;;;5.95;100.00
692;BME280;70475;50.084;8.576;2024-02-28T11:09:19;101321.91;;;5.97;100.00
692;BME280;70475;50.084;8.576;2024-02-28T11:11:51;101318.47;;;6.06;100.00
692;BME280;70475;50.084;8.576;2024-02-28T11:14:19;101328.91;;;6.08;100.00
692;BME280;70475;50.084;8.576;2024-02-28T11:17:00;101327.53;;;6.13;100.00
692;BME280;70475;50.084;8.576;2024-02-28T11:19:28;101329.88;;;6.26;100.00
692;BME280;70475;50.084;8.576;2024-02-28T11:21:56;101325.84;;;6.31;100.00
692;BME280;70475;50.084;8.576;2024-02-28T11:24:29;101325.41;;;6.36;100.00
692;BME280;70475;50.084;8.576;2024-02-28T11:26:59;101327.22;;;6.45;100.00
692;BME280;70475;50.084;8.576;2024-02-28T11:29:27;101331.81;;;6.53;100.00
692;BME280;70475;50.084;8.576;2024-02-28T11:31:56;101319.41;;;6.72;100.00
692;BME280;70475;50.084;8.576;2024-02-28T11:34:23;101319.72;;;6.50;100.00
692;BME280;70475;50.084;8.576;2024-02-28T11:36:51;101319.25;;;6.64;100.00
692;BME280;70475;50.084;8.576;2024-02-28T11:39:19;101312.44;;;6.52;100.00
692;BME280;70475;50.084;8.576;2024-02-28T11:41:49;101324.50;;;6.83;100.00
692;BME280;70475;50.084;8.576;2024-02-28T11:44:18;101319.13;;;6.75;100.00
692;BME280;70475;50.084;8.576;2024-02-28T11:46:47;101310.59;;;6.72;100.00
692;BME280;70475;50.084;8.576;2024-02-28T11:49:15;101313.13;;;6.73;100.00
692;BME280;70475;50.084;8.576;2024-02-28T11:51:44;101316.84;;;6.90;100.00
692;BME280;70475;50.084;8.576;2024-02-28T11:54:12;101317.78;;;6.98;100.00
692;BME280;70475;50.084;8.576;2024-02-28T11:56:40;101314.41;;;7.15;100.00
692;BME280;70475;50.084;8.576;2024-02-28T11:59:10;101311.47;;;7.18;100.00
692;BME280;70475;50.084;8.576;2024-02-28T12:01:43;101306.44;;;7.15;100.00
692;BME280;70475;50.084;8.576;2024-02-28T12:04:13;101312.97;;;7.21;100.00
692;BME280;70475;50.084;8.576;2024-02-28T12:06:40;101305.53;;;7.34;100.00
692;BME280;70475;50.084;8.576;2024-02-28T12:09:10;101304.19;;;7.47;100.00
692;BME280;70475;50.084;8.576;2024-02-28T12:11:50;101303.22;;;7.48;100.00
692;BME280;70475;50.084;8.576;2024-02-28T12:14:17;101293.38;;;7.58;100.00
692;BME280;70475;50.084;8.576;2024-02-28T12:16:48;101286.16;;;7.78;100.00
692;BME280;70475;50.084;8.576;2024-02-28T12:19:16;101287.25;;;7.58;100.00
692;BME280;70475;50.084;8.576;2024-02-28T12:21:46;101277.03;;;7.80;100.00
692;BME280;70475;50.084;8.576;2024-02-28T12:24:14;101283.66;;;7.94;100.00
692;BME280;70475;50.084;8.576;2024-02-28T12:26:42;101278.59;;;8.00;100.00
692;BME280;70475;50.084;8.576;2024-02-28T12:29:10;101277.31;;;8.22;100.00
692;BME280;70475;50.084;8.576;2024-02-28T12:31:38;101280.41;;;8.00;100.00
692;BME280;70475;50.084;8.576;2024-02-28T12:34:07;101273.03;;;8.11;100.00
692;BME280;70475;50.084;8.576;2024-02-28T12:36:35;101274.25;;;8.17;100.00
692;BME280;70475;50.084;8.576;2024-02-28T12:39:02;101261.34;;;8.39;100.00
692;BME280;70475;50.084;8.576;2024-02-28T12:41:32;101263.81;;;8.33;100.00
692;BME280;70475;50.084;8.576;2024-02-28T12:44:00;101269.88;;;8.08;100.00
692;BME280;70475;50.084;8.576;2024-02-28T12:46:27;101263.03;;;8.41;100.00
692;BME280;70475;50.084;8.576;2024-02-28T12:48:55;101259.56;;;8.40;100.00
692;BME280;70475;50.084;8.576;2024-02-28T12:51:38;101252.78;;;8.46;100.00
692;BME280;70475;50.084;8.576;2024-02-28T12:54:06;101252.53;;;8.57;100.00
692;BME280;70475;50.084;8.576;2024-02-28T12:56:34;101246.28;;;8.66;100.00
692;BME280;70475;50.084;8.576;2024-02-28T12:59:02;101242.88;;;8.81;100.00
692;BME280;70475;50.084;8.576;2024-02-28T13:01:30;101238.28;;;8.91;100.00
692;BME280;70475;50.084;8.576;2024-02-28T13:03:58;101231.59;;;8.79;100.00
692;BME280;70475;50.084;8.576;2024-02-28T13:06:26;101232.16;;;8.91;100.00
692;BME280;70475;50.084;8.576;2024-02-28T13:08:55;101234.56;;;9.10;100.00
692;BME280;70475;50.084;8.576;2024-02-28T13:11:23;101232.94;;;9.17;100.00
692;BME280;70475;50.084;8.576;2024-02-28T13:13:52;101229.59;;;9.15;100.00
692;BME280;70475;50.084;8.576;2024-02-28T13:16:20;101222.09;;;9.02;100.00